Time;durP1;ratioP1;P1;durP2;ratioP2;P2;SDS_P1;SDS_P2;PMS_P1;PMS_P2;Temp;Humidity;BMP_temperature;BMP_pressure;BME280_temperature;BME280_humidity;BME280_pressure;Samples;Min_cycle;Max_cycle;Signal;HPM_P1;HPM_P2
2023/04/06 00:01:55;;;;;;;18.00;14.40;;;;;;;10.45;73.48;99800.05;109294;1256;61684;-82
2023/04/06 00:04:26;;;;;;;18.20;14.30;;;;;;;10.44;73.30;99799.10;109266;1256;63737;-82
2023/04/06 00:06:56;;;;;;;15.40;12.80;;;;;;;10.41;72.94;99798.27;109358;1256;56840;-82
2023/04/06 00:09:27;;;;;;;16.40;13.40;;;;;;;10.44;72.88;99795.17;109254;1256;57083;-83
2023/04/06 00:12:01;;;;;;;20.30;14.90;;;;;;;10.41;72.96;99790.71;108494;1256;64371;-82
2023/04/06 00:14:30;;;;;;;17.50;13.30;;;;;;;10.39;73.16;99790.58;107458;1256;62396;-82
2023/04/06 00:16:58;;;;;;;18.90;13.60;;;;;;;10.38;73.25;99790.13;107615;1255;73542;-82
2023/04/06 00:19:32;;;;;;;20.80;12.80;;;;;;;10.41;73.29;99785.34;107948;1255;59174;-83
2023/04/06 00:22:02;;;;;;;18.70;13.90;;;;;;;10.45;73.40;99780.39;108058;1255;61078;-83
2023/04/06 00:24:33;;;;;;;20.20;13.20;;;;;;;10.46;73.61;99778.90;108598;1254;64418;-83
2023/04/06 00:27:01;;;;;;;15.60;12.30;;;;;;;10.44;73.70;99788.02;108492;1254;70531;-83
2023/04/06 00:29:32;;;;;;;15.80;11.90;;;;;;;10.42;74.06;99784.16;108493;1256;64463;-82
2023/04/06 00:32:05;;;;;;;15.90;12.00;;;;;;;10.49;74.15;99782.83;108393;1256;61937;-82
2023/04/06 00:34:35;;;;;;;18.60;12.80;;;;;;;10.56;74.31;99772.23;108332;1255;59078;-83
2023/04/06 00:37:12;;;;;;;17.20;13.30;;;;;;;10.60;74.38;99779.90;108384;1255;65567;-83
2023/04/06 00:39:41;;;;;;;15.70;11.90;;;;;;;10.63;74.57;99777.20;108464;1255;62591;-82
2023/04/06 00:42:13;;;;;;;18.60;12.20;;;;;;;10.67;74.47;99770.23;108372;1256;75164;-82
2023/04/06 00:44:42;;;;;;;17.30;11.50;;;;;;;10.73;74.36;99768.23;107933;1263;61918;-82
2023/04/06 00:47:15;;;;;;;17.10;13.10;;;;;;;10.81;74.26;99766.60;108060;1257;59258;-81
2023/04/06 00:49:46;;;;;;;16.90;13.10;;;;;;;10.86;74.21;99763.84;107892;1257;64442;-83
2023/04/06 00:52:22;;;;;;;16.10;11.60;;;;;;;10.89;74.15;99765.60;107847;1257;61413;-83
2023/04/06 00:54:50;;;;;;;18.00;12.50;;;;;;;10.87;74.11;99765.88;107872;1258;63187;-83
2023/04/06 00:57:21;;;;;;;16.20;11.80;;;;;;;10.92;73.85;99764.73;108038;1257;58726;-83
2023/04/06 00:59:56;;;;;;;16.70;13.10;;;;;;;10.99;73.73;99763.23;107997;1258;62440;-83
2023/04/06 01:02:25;;;;;;;18.80;13.20;;;;;;;11.02;73.78;99761.23;107898;1256;67207;-84
2023/04/06 01:05:01;;;;;;;18.50;13.00;;;;;;;11.00;73.75;99762.27;107869;1256;62929;-83
2023/04/06 01:07:35;;;;;;;15.50;12.00;;;;;;;11.00;73.79;99763.32;107747;1256;65574;-83
2023/04/06 01:10:25;;;;;;;16.30;11.60;;;;;;;11.04;73.66;99761.73;107751;1257;57695;-83
2023/04/06 01:12:59;;;;;;;15.10;11.50;;;;;;;11.08;73.60;99757.64;108341;1257;59641;-81
2023/04/06 01:15:48;;;;;;;17.50;13.00;;;;;;;11.08;73.83;99755.21;107796;1257;65427;-83
2023/04/06 01:18:26;;;;;;;16.90;12.20;;;;;;;11.08;73.86;99751.05;107762;1256;64512;-83
2023/04/06 01:21:02;;;;;;;16.50;12.00;;;;;;;11.09;73.84;99751.66;107821;1259;65836;-83
2023/04/06 01:23:36;;;;;;;15.30;11.10;;;;;;;11.14;73.68;99749.02;107829;1260;65174;-83
2023/04/06 01:26:12;;;;;;;16.00;12.00;;;;;;;11.20;73.61;99748.57;107801;1256;59496;-81
2023/04/06 01:28:41;;;;;;;16.30;12.10;;;;;;;11.20;73.68;99748.11;107869;1257;64383;-82
2023/04/06 01:31:32;;;;;;;16.60;13.60;;;;;;;11.21;73.98;99751.75;107919;1259;62852;-82
2023/04/06 01:35:04;;;;;;;16.80;11.90;;;;;;;11.23;74.06;99750.35;107796;1257;65203;-81
2023/04/06 01:38:12;;;;;;;15.70;11.10;;;;;;;11.33;73.77;99747.86;107796;1257;60242;-81
2023/04/06 01:40:43;;;;;;;16.70;11.60;;;;;;;11.38;73.59;99746.15;107873;1257;59223;-81
2023/04/06 01:43:12;;;;;;;15.20;11.80;;;;;;;11.38;73.66;99744.77;107745;1257;64185;-81
2023/04/06 01:45:52;;;;;;;15.80;11.70;;;;;;;11.34;73.63;99741.56;107817;1257;62371;-83
2023/04/06 01:48:21;;;;;;;15.30;11.20;;;;;;;11.29;73.62;99739.39;107825;1257;64020;-84
2023/04/06 01:50:54;;;;;;;16.30;11.50;;;;;;;11.30;73.52;99739.30;107657;1258;58723;-84
2023/04/06 01:53:26;;;;;;;16.20;12.00;;;;;;;11.34;73.47;99731.24;107688;1258;58996;-84
2023/04/06 01:56:26;;;;;;;17.90;12.30;;;;;;;11.33;73.49;99727.40;108742;1257;66100;-83
2023/04/06 01:59:18;;;;;;;17.60;11.70;;;;;;;11.30;73.56;99728.02;107836;1250;77900;-46
2023/04/06 02:01:46;;;;;;;15.40;11.60;;;;;;;11.29;73.61;99723.23;104835;1256;64999;-46
2023/04/06 02:04:15;;;;;;;14.20;10.30;;;;;;;11.35;73.46;99723.40;104854;1262;59633;-46
2023/04/06 02:06:45;;;;;;;18.10;12.50;;;;;;;11.41;73.29;99722.39;104811;1258;60380;-46
2023/04/06 02:09:16;;;;;;;18.70;13.30;;;;;;;11.41;73.24;99721.83;108231;1257;65480;-46
2023/04/06 02:11:45;;;;;;;16.20;11.70;;;;;;;11.39;73.30;99727.86;108138;1258;62503;-46
2023/04/06 02:14:13;;;;;;;16.20;11.80;;;;;;;11.37;73.24;99724.16;108193;1260;65447;-46
2023/04/06 02:16:47;;;;;;;17.90;11.00;;;;;;;11.41;73.06;99720.98;105652;1257;60605;-46
2023/04/06 02:19:15;;;;;;;18.00;12.20;;;;;;;11.46;72.87;99718.17;104774;1256;60473;-47
2023/04/06 02:21:47;;;;;;;15.10;11.30;;;;;;;11.45;72.66;99719.28;108176;1258;65853;-46
2023/04/06 02:24:16;;;;;;;16.80;11.80;;;;;;;11.42;72.70;99719.63;108223;1260;63394;-46
2023/04/06 02:26:44;;;;;;;16.10;11.70;;;;;;;11.41;72.62;99717.25;108157;1260;64540;-46
2023/04/06 02:29:12;;;;;;;14.80;11.50;;;;;;;11.42;72.49;99714.50;108195;1256;60294;-46
2023/04/06 02:31:41;;;;;;;17.30;12.00;;;;;;;11.45;72.48;99713.38;105360;1261;60454;-45
2023/04/06 02:34:11;;;;;;;15.30;12.30;;;;;;;11.44;72.48;99711.02;108318;1256;65818;-46
2023/04/06 02:36:46;;;;;;;17.70;11.80;;;;;;;11.41;72.42;99711.98;104929;1260;61635;-45
2023/04/06 02:39:14;;;;;;;15.90;11.90;;;;;;;11.38;72.51;99719.45;108176;1256;65492;-45
2023/04/06 02:41:43;;;;;;;15.00;11.30;;;;;;;11.41;72.30;99718.09;105229;1260;60361;-45
2023/04/06 02:44:11;;;;;;;16.60;10.70;;;;;;;11.47;71.99;99713.52;108230;1255;60992;-45
2023/04/06 02:46:45;;;;;;;16.10;11.90;;;;;;;11.45;71.85;99715.63;106347;1256;67614;-47
2023/04/06 02:49:14;;;;;;;16.30;11.70;;;;;;;11.41;71.93;99716.14;107940;1260;62605;-45
2023/04/06 02:51:44;;;;;;;15.90;11.30;;;;;;;11.42;71.93;99720.15;108112;1258;63781;-45
2023/04/06 02:54:17;;;;;;;17.00;11.90;;;;;;;11.46;71.61;99714.27;106849;1260;65363;-46
2023/04/06 02:56:46;;;;;;;15.40;11.70;;;;;;;11.50;71.28;99711.62;108159;1256;60485;-46
2023/04/06 02:59:15;;;;;;;15.70;12.20;;;;;;;11.48;71.33;99705.83;108122;1257;66199;-47
2023/04/06 03:01:52;;;;;;;16.10;11.20;;;;;;;11.49;71.39;99706.45;108191;1256;63211;-47
2023/04/06 03:04:22;;;;;;;18.10;11.80;;;;;;;11.48;71.35;99706.88;108123;1257;65786;-47
2023/04/06 03:06:51;;;;;;;15.90;10.30;;;;;;;11.51;71.02;99708.50;108181;1257;60429;-47
2023/04/06 03:09:27;;;;;;;14.80;11.20;;;;;;;11.55;70.63;99707.98;108195;1256;58497;-47
2023/04/06 03:11:57;;;;;;;15.00;11.00;;;;;;;11.54;70.46;99710.40;108189;1256;64888;-47
2023/04/06 03:14:27;;;;;;;17.50;10.90;;;;;;;11.50;70.55;99711.97;108250;1256;62432;-47
2023/04/06 03:16:59;;;;;;;14.90;11.20;;;;;;;11.49;70.63;99712.23;107445;1260;64714;-46
2023/04/06 03:19:28;;;;;;;15.20;10.20;;;;;;;11.54;70.47;99712.28;108185;1256;63262;-47
2023/04/06 03:21:57;;;;;;;16.00;10.40;;;;;;;11.59;70.31;99713.21;108159;1256;60054;-46
2023/04/06 03:24:25;;;;;;;14.70;11.40;;;;;;;11.62;70.08;99711.06;108206;1255;66079;-47
2023/04/06 03:26:54;;;;;;;15.80;11.90;;;;;;;11.59;70.14;99715.17;108236;1256;63017;-46
2023/04/06 03:29:31;;;;;;;16.00;11.90;;;;;;;11.56;70.10;99718.11;108150;1256;64685;-47
2023/04/06 03:31:59;;;;;;;15.10;10.50;;;;;;;11.52;70.08;99719.30;108192;1256;60578;-49
2023/04/06 03:34:38;;;;;;;15.00;9.90;;;;;;;11.55;69.85;99725.44;108097;1257;60703;-46
2023/04/06 03:37:10;;;;;;;15.50;10.10;;;;;;;11.60;69.76;99727.36;107728;1258;65833;-46
2023/04/06 03:39:45;;;;;;;14.60;10.50;;;;;;;11.61;69.82;99723.77;108194;1255;63740;-46
2023/04/06 03:42:16;;;;;;;15.00;10.00;;;;;;;11.61;69.72;99720.44;108164;1256;65177;-46
2023/04/06 03:44:52;;;;;;;14.20;10.50;;;;;;;11.60;69.60;99723.99;106793;1259;60884;-46
2023/04/06 03:47:21;;;;;;;15.20;10.30;;;;;;;11.58;69.76;99727.98;104927;1256;60565;-46
2023/04/06 03:49:56;;;;;;;13.60;10.10;;;;;;;11.61;69.60;99732.20;107691;1258;66714;-46
2023/04/06 03:52:24;;;;;;;13.00;10.00;;;;;;;11.66;69.24;99732.77;108226;1256;63402;-46
2023/04/06 03:54:52;;;;;;;16.00;10.10;;;;;;;11.67;69.17;99736.39;108395;1256;64855;-46
2023/04/06 03:57:20;;;;;;;15.60;11.30;;;;;;;11.66;69.30;99738.21;106227;1258;60641;-45
2023/04/06 03:59:50;;;;;;;15.60;10.70;;;;;;;11.66;69.25;99743.09;105224;1257;60509;-45
2023/04/06 04:02:19;;;;;;;18.10;10.30;;;;;;;11.64;69.09;99741.17;105653;1256;66168;-45
2023/04/06 04:04:47;;;;;;;15.50;9.80;;;;;;;11.65;68.91;99744.27;105042;1260;62469;-46
2023/04/06 04:07:21;;;;;;;12.70;10.00;;;;;;;11.68;68.88;99743.69;104849;1257;74131;-45
2023/04/06 04:09:50;;;;;;;13.80;10.50;;;;;;;11.65;68.88;99743.73;104745;1256;60499;-45
2023/04/06 04:12:19;;;;;;;14.70;10.80;;;;;;;11.62;69.04;99742.79;104789;1260;60403;-45
2023/04/06 04:14:49;;;;;;;14.30;10.50;;;;;;;11.58;69.01;99744.28;104753;1261;67920;-45
2023/04/06 04:17:17;;;;;;;13.50;9.30;;;;;;;11.53;69.02;99742.05;104644;1261;62931;-45
2023/04/06 04:19:47;;;;;;;12.10;9.70;;;;;;;11.56;68.98;99745.83;104798;1260;65248;-46
2023/04/06 04:22:15;;;;;;;13.30;9.90;;;;;;;11.61;68.84;99745.23;104719;1261;60646;-45
2023/04/06 04:24:46;;;;;;;14.30;9.90;;;;;;;11.60;68.98;99744.91;104831;1256;60486;-47
2023/04/06 04:27:15;;;;;;;14.20;10.70;;;;;;;11.60;69.11;99746.05;104706;1261;65508;-45
2023/04/06 04:29:49;;;;;;;14.80;10.70;;;;;;;11.59;69.01;99744.70;105917;1255;72078;-46
2023/04/06 04:32:20;;;;;;;12.90;9.50;;;;;;;11.59;68.93;99744.68;104721;1260;63993;-45
2023/04/06 04:34:50;;;;;;;15.70;10.90;;;;;;;11.66;68.86;99751.80;108218;1260;60239;-46
2023/04/06 04:37:35;;;;;;;12.90;9.40;;;;;;;11.74;68.74;99752.60;108188;1256;58929;-46
2023/04/06 04:40:04;;;;;;;13.60;10.10;;;;;;;11.80;68.53;99757.64;108201;1261;65154;-46
2023/04/06 04:42:39;;;;;;;15.90;10.10;;;;;;;11.82;68.57;99758.36;108247;1256;63752;-46
2023/04/06 04:45:10;;;;;;;17.50;9.60;;;;;;;11.82;68.45;99757.64;108123;1256;64155;-46
2023/04/06 04:47:39;;;;;;;13.50;8.70;;;;;;;11.82;68.33;99755.33;108246;1259;61734;-46
2023/04/06 04:50:14;;;;;;;14.40;8.90;;;;;;;11.90;67.92;99756.21;108103;1256;60260;-46
2023/04/06 04:52:44;;;;;;;15.30;10.00;;;;;;;11.95;67.78;99753.80;104228;1259;66281;-46
2023/04/06 04:55:20;;;;;;;15.30;10.00;;;;;;;11.94;67.96;99757.73;108383;1260;62360;-46
2023/04/06 04:57:52;;;;;;;13.50;9.70;;;;;;;11.92;67.87;99758.80;108123;1259;75934;-46
2023/04/06 05:00:23;;;;;;;16.00;9.40;;;;;;;11.91;67.87;99753.63;108212;1256;59743;-47
2023/04/06 05:02:55;;;;;;;15.00;8.60;;;;;;;11.93;67.65;99757.88;108184;1257;59227;-46
2023/04/06 05:05:27;;;;;;;13.00;9.10;;;;;;;12.03;67.44;99757.40;108143;1257;65852;-47
2023/04/06 05:07:56;;;;;;;10.90;8.30;;;;;;;12.07;67.36;99755.27;108193;1256;63134;-46
2023/04/06 05:10:35;;;;;;;13.20;9.20;;;;;;;12.09;67.37;99756.72;108132;1260;65115;-47
2023/04/06 05:13:04;;;;;;;12.60;8.70;;;;;;;12.08;67.32;99756.73;108099;1256;58360;-46
2023/04/06 05:15:34;;;;;;;15.10;9.30;;;;;;;12.05;67.21;99758.04;106583;1256;59808;-46
2023/04/06 05:18:19;;;;;;;11.90;8.10;;;;;;;12.03;67.18;99754.63;104605;1256;64861;-46
2023/04/06 05:20:49;;;;;;;11.90;8.80;;;;;;;12.05;67.11;99755.95;104850;1258;62661;-46
2023/04/06 05:23:17;;;;;;;12.80;8.50;;;;;;;12.10;67.09;99758.85;108176;1257;65119;-60
2023/04/06 05:25:48;;;;;;;10.80;8.50;;;;;;;12.11;67.16;99758.84;108122;1256;58338;-57
2023/04/06 05:28:19;;;;;;;11.80;8.30;;;;;;;12.10;67.19;99756.63;108130;1256;63137;-56
2023/04/06 05:30:51;;;;;;;12.70;8.70;;;;;;;12.09;67.14;99758.83;105704;1259;66199;-55
2023/04/06 05:33:20;;;;;;;12.70;8.40;;;;;;;12.04;67.16;99761.13;104770;1256;62689;-55
2023/04/06 05:36:00;;;;;;;13.60;8.90;;;;;;;12.05;67.14;99759.02;104802;1256;64825;-56
2023/04/06 05:38:29;;;;;;;11.90;8.20;;;;;;;12.08;67.16;99756.08;104804;1256;61512;-55
2023/04/06 05:41:00;;;;;;;12.80;9.00;;;;;;;12.11;67.28;99760.86;104130;1260;61510;-56
2023/04/06 05:43:31;;;;;;;13.90;9.20;;;;;;;12.12;67.26;99760.67;103692;1256;64886;-55
2023/04/06 05:46:00;;;;;;;13.20;9.00;;;;;;;12.11;67.17;99761.44;108183;1255;62529;-56
2023/04/06 05:48:28;;;;;;;13.60;8.40;;;;;;;12.11;67.25;99759.83;108236;1256;65544;-56
2023/04/06 05:50:58;;;;;;;11.40;7.90;;;;;;;12.15;67.12;99761.73;104611;1256;61924;-54
2023/04/06 05:53:32;;;;;;;13.50;8.30;;;;;;;12.22;66.92;99763.51;108136;1256;60334;-55
2023/04/06 05:56:02;;;;;;;13.00;8.30;;;;;;;12.28;66.80;99764.30;108295;1255;67501;-55
2023/04/06 05:58:32;;;;;;;11.90;8.60;;;;;;;12.29;66.67;99767.75;108182;1259;61876;-56
2023/04/06 06:01:03;;;;;;;11.60;8.20;;;;;;;12.29;66.59;99765.00;108183;1259;74736;-55
2023/04/06 06:03:41;;;;;;;11.10;8.30;;;;;;;12.29;66.48;99759.30;108117;1257;59682;-56
2023/04/06 06:06:10;;;;;;;15.20;8.00;;;;;;;12.36;66.40;99764.23;108186;1256;59804;-56
2023/04/06 06:08:55;;;;;;;11.90;7.60;;;;;;;12.50;66.18;99759.05;108140;1260;66115;-56
2023/04/06 06:11:26;;;;;;;14.50;9.00;;;;;;;12.64;65.88;99756.77;108133;1258;62645;-56
2023/04/06 06:13:54;;;;;;;10.90;8.50;;;;;;;12.70;65.94;99759.33;108132;1256;64922;-56
2023/04/06 06:16:23;;;;;;;14.30;8.80;;;;;;;12.81;65.81;99757.97;108133;1256;59564;-55
2023/04/06 06:18:51;;;;;;;14.40;9.10;;;;;;;12.92;65.44;99754.52;108239;1259;58740;-56
2023/04/06 06:21:19;;;;;;;12.70;8.20;;;;;;;13.01;65.45;99758.38;108222;1256;67195;-55
2023/04/06 06:23:49;;;;;;;13.30;7.40;;;;;;;13.16;65.05;99761.10;108250;1257;62258;-56
2023/04/06 06:26:19;;;;;;;10.90;7.30;;;;;;;13.32;64.50;99762.87;108199;1256;64743;-56
2023/04/06 06:28:47;;;;;;;12.40;8.00;;;;;;;13.39;64.31;99764.34;108149;1257;59871;-56
2023/04/06 06:31:16;;;;;;;12.70;7.80;;;;;;;13.41;64.16;99767.16;108199;1255;60235;-56
2023/04/06 06:33:50;;;;;;;13.60;7.90;;;;;;;13.40;63.78;99767.70;108161;1259;74876;-56
2023/04/06 06:36:19;;;;;;;10.80;7.70;;;;;;;13.40;63.79;99769.48;108129;1256;63628;-56
2023/04/06 06:38:47;;;;;;;13.50;7.40;;;;;;;13.37;63.82;99762.16;108246;1256;63982;-56
2023/04/06 06:41:22;;;;;;;10.30;7.10;;;;;;;13.36;63.77;99762.97;108195;1256;61131;-56
2023/04/06 06:43:50;;;;;;;13.30;7.10;;;;;;;13.43;63.52;99766.22;108116;1256;59901;-57
2023/04/06 06:46:19;;;;;;;12.60;7.10;;;;;;;13.50;63.54;99772.50;108272;1256;65401;-57
2023/04/06 06:48:48;;;;;;;10.60;7.10;;;;;;;13.57;63.54;99768.31;108298;1256;62890;-57
2023/04/06 06:51:16;;;;;;;14.60;7.40;;;;;;;13.64;63.41;99771.95;108252;1255;65320;-56
2023/04/06 06:53:47;;;;;;;15.50;7.80;;;;;;;13.69;63.16;99776.23;108351;1256;60214;-56
2023/04/06 06:56:16;;;;;;;13.80;8.20;;;;;;;13.72;63.02;99775.36;105068;1256;60518;-56
2023/04/06 06:58:46;;;;;;;12.60;7.90;;;;;;;13.73;62.78;99772.83;108186;1256;66408;-56
2023/04/06 07:01:14;;;;;;;12.00;7.10;;;;;;;13.72;62.68;99769.05;108258;1257;61494;-56
2023/04/06 07:03:43;;;;;;;11.60;6.80;;;;;;;13.79;62.67;99770.63;108157;1256;65286;-57
2023/04/06 07:06:13;;;;;;;13.10;6.60;;;;;;;13.89;62.44;99768.20;108222;1257;59637;-56
2023/04/06 07:08:41;;;;;;;14.80;7.60;;;;;;;13.96;62.18;99773.08;108194;1256;60042;-56
2023/04/06 07:11:09;;;;;;;10.80;6.90;;;;;;;14.00;62.11;99772.01;105355;1256;66100;-56
2023/04/06 07:13:38;;;;;;;12.40;7.80;;;;;;;14.00;62.01;99772.30;104958;1255;62573;-57
2023/04/06 07:16:06;;;;;;;11.10;8.10;;;;;;;14.02;62.04;99775.11;104829;1259;65057;-56
2023/04/06 07:18:35;;;;;;;13.00;7.60;;;;;;;14.02;62.05;99784.87;104676;1260;60607;-56
2023/04/06 07:21:04;;;;;;;11.30;7.20;;;;;;;14.01;62.08;99788.60;104853;1258;62653;-56
2023/04/06 07:23:34;;;;;;;14.30;6.80;;;;;;;14.02;62.05;99789.46;104798;1259;66019;-56
2023/04/06 07:26:02;;;;;;;11.10;6.60;;;;;;;14.06;61.99;99790.75;108127;1256;61520;-57
2023/04/06 07:28:31;;;;;;;14.50;7.20;;;;;;;14.13;61.72;99786.16;108238;1256;64777;-59
2023/04/06 07:31:00;;;;;;;14.30;7.50;;;;;;;14.16;61.50;99788.00;108220;1259;58339;-61
2023/04/06 07:33:30;;;;;;;11.20;7.10;;;;;;;14.15;61.54;99789.98;106917;1255;60494;-57
2023/04/06 07:35:59;;;;;;;15.40;7.80;;;;;;;14.17;61.46;99787.80;104842;1261;66049;-56
2023/04/06 07:38:28;;;;;;;13.20;7.00;;;;;;;14.19;61.32;99788.67;108208;1259;66079;-57
2023/04/06 07:40:56;;;;;;;11.90;7.30;;;;;;;14.18;61.45;99790.08;108192;1259;64693;-58
2023/04/06 07:43:25;;;;;;;11.60;7.50;;;;;;;14.14;61.61;99793.44;108182;1260;58450;-57
2023/04/06 07:45:54;;;;;;;14.30;7.20;;;;;;;14.12;61.52;99798.73;108171;1256;58495;-57
2023/04/06 07:48:23;;;;;;;11.20;6.90;;;;;;;14.16;61.54;99799.21;108256;1256;66398;-57
2023/04/06 07:50:52;;;;;;;12.50;6.30;;;;;;;14.20;61.70;99799.48;108251;1256;62665;-56
2023/04/06 07:53:20;;;;;;;11.90;7.20;;;;;;;14.25;61.63;99802.34;108123;1256;65748;-60
2023/04/06 07:55:49;;;;;;;12.40;7.00;;;;;;;14.31;61.67;99805.63;105191;1256;60323;-57
2023/04/06 07:58:18;;;;;;;11.80;7.30;;;;;;;14.35;61.43;99806.81;108261;1256;60920;-57
2023/04/06 08:00:46;;;;;;;11.20;7.50;;;;;;;14.33;61.26;99809.08;105152;1260;67338;-56
2023/04/06 08:03:16;;;;;;;11.40;7.20;;;;;;;14.27;61.23;99810.45;104738;1260;62512;-56
2023/04/06 08:05:45;;;;;;;13.60;7.40;;;;;;;14.17;61.35;99808.63;108336;1255;64831;-57
2023/04/06 08:08:16;;;;;;;15.20;7.00;;;;;;;14.15;61.47;99807.11;108274;1257;58578;-57
2023/04/06 08:10:44;;;;;;;13.80;6.50;;;;;;;14.21;61.35;99809.80;108249;1260;58496;-61
2023/04/06 08:13:13;;;;;;;14.30;6.90;;;;;;;14.27;61.28;99808.13;105606;1261;66370;-57
2023/04/06 08:15:41;;;;;;;15.80;6.90;;;;;;;14.32;61.28;99809.00;104780;1260;62864;-56
2023/04/06 08:18:10;;;;;;;10.30;6.60;;;;;;;14.39;61.05;99812.67;108256;1256;64711;-57
2023/04/06 08:20:39;;;;;;;12.10;6.70;;;;;;;14.37;61.16;99813.85;108287;1256;59870;-57
2023/04/06 08:23:09;;;;;;;12.40;6.80;;;;;;;14.32;61.19;99815.56;108028;1256;60199;-57
2023/04/06 08:25:37;;;;;;;15.80;7.40;;;;;;;14.31;61.29;99817.44;105956;1256;65522;-57
2023/04/06 08:28:06;;;;;;;13.90;7.10;;;;;;;14.30;61.35;99816.20;108334;1256;62296;-57
2023/04/06 08:30:35;;;;;;;15.20;6.70;;;;;;;14.28;61.38;99815.91;107505;1256;64658;-57
2023/04/06 08:33:10;;;;;;;13.10;6.50;;;;;;;14.36;61.29;99813.25;104850;1256;61283;-56
2023/04/06 08:35:38;;;;;;;11.20;6.50;;;;;;;14.42;61.28;99813.33;106186;1255;60484;-57
2023/04/06 08:38:07;;;;;;;18.20;6.80;;;;;;;14.40;61.48;99815.74;108201;1260;66366;-56
2023/04/06 08:40:39;;;;;;;12.50;6.80;;;;;;;14.38;61.55;99814.98;108243;1259;61316;-57
2023/04/06 08:43:11;;;;;;;11.40;6.90;;;;;;;14.32;61.74;99814.44;108261;1258;64070;-58
2023/04/06 08:45:41;;;;;;;11.90;7.50;;;;;;;14.29;61.87;99813.94;107374;1258;60565;-58
2023/04/06 08:48:10;;;;;;;12.80;7.90;;;;;;;14.24;62.03;99816.70;104806;1256;60492;-57
2023/04/06 08:50:39;;;;;;;11.90;6.40;;;;;;;14.22;62.18;99818.52;106710;1257;66144;-58
2023/04/06 08:53:08;;;;;;;11.70;6.60;;;;;;;14.27;62.17;99818.69;107137;1260;61636;-59
2023/04/06 08:55:37;;;;;;;11.10;6.70;;;;;;;14.34;62.13;99819.08;108323;1256;64879;-59
2023/04/06 08:58:06;;;;;;;13.50;7.00;;;;;;;14.38;62.11;99817.23;106265;1257;60469;-60
2023/04/06 09:00:38;;;;;;;13.60;7.40;;;;;;;14.42;62.15;99818.80;108260;1258;61148;-59
2023/04/06 09:03:23;;;;;;;15.90;7.70;;;;;;;14.45;62.00;99819.52;108005;1258;68389;-58
2023/04/06 09:05:52;;;;;;;12.70;8.30;;;;;;;14.44;62.09;99822.05;104286;1258;62350;-57
2023/04/06 09:08:21;;;;;;;17.50;7.70;;;;;;;14.41;62.26;99824.16;103573;1257;65028;-57
2023/04/06 09:10:49;;;;;;;11.90;6.70;;;;;;;14.42;62.41;99825.88;107414;1261;58863;-58
2023/04/06 09:13:24;;;;;;;10.40;7.20;;;;;;;14.43;62.55;99826.38;103472;1257;60576;-57
2023/04/06 09:16:03;;;;;;;14.80;8.10;;;;;;;14.41;62.87;99832.09;107329;1259;66355;-57
2023/04/06 09:18:33;;;;;;;15.90;8.40;;;;;;;14.38;63.37;99832.02;108017;1257;62678;-59
2023/04/06 09:21:04;;;;;;;10.90;7.40;;;;;;;14.37;63.55;99832.48;103716;1259;65015;-57
2023/04/06 09:23:33;;;;;;;12.20;8.50;;;;;;;14.38;63.67;99836.89;105922;1259;60464;-59
2023/04/06 09:26:14;;;;;;;12.00;7.70;;;;;;;14.37;63.83;99838.54;108124;1259;59841;-58
2023/04/06 09:28:51;;;;;;;16.90;8.00;;;;;;;14.38;63.93;99838.05;108163;1257;65234;-58
2023/04/06 09:31:25;;;;;;;13.90;8.10;;;;;;;14.47;63.98;99841.91;108185;1258;61263;-58
2023/04/06 09:33:53;;;;;;;14.40;8.20;;;;;;;14.51;63.98;99843.54;105528;1258;65662;-58
2023/04/06 09:36:32;;;;;;;11.90;8.20;;;;;;;14.52;64.18;99848.23;103628;1259;61311;-58
2023/04/06 09:39:04;;;;;;;13.80;8.90;;;;;;;14.52;64.11;99850.19;108140;1261;59367;-58
2023/04/06 09:41:34;;;;;;;11.60;7.80;;;;;;;14.49;64.23;99852.55;108042;1259;68291;-58
2023/04/06 09:44:11;;;;;;;15.90;8.30;;;;;;;14.46;64.25;99849.85;108147;1259;63209;-60
2023/04/06 09:46:42;;;;;;;15.70;7.50;;;;;;;14.46;64.31;99859.77;108144;1260;74682;-57
2023/04/06 09:49:27;;;;;;;12.30;8.00;;;;;;;14.51;64.35;99863.04;108216;1260;59998;-58
2023/04/06 09:52:04;;;;;;;16.00;8.70;;;;;;;14.50;64.31;99864.85;107226;1259;60752;-57
2023/04/06 09:54:32;;;;;;;15.90;8.30;;;;;;;14.48;64.62;99868.58;105805;1259;66390;-57
2023/04/06 09:57:25;;;;;;;11.40;8.80;;;;;;;14.46;64.71;99868.96;104486;1259;63116;-57
2023/04/06 10:00:14;;;;;;;10.60;7.50;;;;;;;14.36;65.29;99871.27;104746;1256;65072;-59
2023/04/06 10:03:08;;;;;;;9.20;6.60;;;;;;;14.27;65.72;99875.13;106530;1259;60432;-66
2023/04/06 10:05:42;;;;;;;;;;;;;;;14.35;65.73;99879.58;104874;1259;60471;-64
2023/04/06 10:08:10;;;;;;;9.90;6.10;;;;;;;14.39;65.41;99881.16;105424;1259;65062;-57
2023/04/06 10:10:39;;;;;;;8.40;5.40;;;;;;;14.30;65.90;99881.58;104594;1256;409343;-57
2023/04/06 10:25:32;;;;;;;11.60;6.00;;;;;;;14.46;65.94;99883.23;102619;1288;604690;-57
2023/04/06 10:28:10;;;;;;;10.40;6.80;;;;;;;14.84;64.94;99886.71;106680;1269;106844;-58
2023/04/06 10:30:42;;;;;;;9.60;6.60;;;;;;;14.79;65.03;99891.56;103714;1266;59391;-58
2023/04/06 10:33:14;;;;;;;10.70;6.00;;;;;;;14.71;65.28;99891.98;103345;1273;64606;-56
2023/04/06 10:35:42;;;;;;;9.70;5.70;;;;;;;14.70;65.36;99894.39;106314;1266;62371;-57
2023/04/06 10:38:13;;;;;;;8.50;6.20;;;;;;;14.73;65.57;99898.48;103042;1265;63746;-56
2023/04/06 10:40:46;;;;;;;10.70;7.70;;;;;;;14.76;65.54;99897.26;103902;1267;59636;-57
2023/04/06 10:43:20;;;;;;;13.70;7.80;;;;;;;14.78;65.62;99898.71;105516;1266;59208;-57
2023/04/06 10:45:56;;;;;;;12.30;9.30;;;;;;;14.79;65.59;99901.60;107787;1267;65420;-57
2023/04/06 10:48:25;;;;;;;;;;;;;;;14.88;65.38;99902.05;107837;1266;62566;-57
2023/04/06 10:50:53;;;;;;;15.30;10.20;;;;;;;15.02;64.99;99904.05;107759;1266;63903;-56
2023/04/06 10:53:22;;;;;;;14.60;10.50;;;;;;;14.90;65.35;99903.52;107721;1269;58805;-57
2023/04/06 10:55:51;;;;;;;12.70;9.40;;;;;;;14.89;65.55;99906.17;107855;1265;57677;-57
2023/04/06 10:58:20;;;;;;;12.90;8.70;;;;;;;15.00;65.07;99907.16;107670;1266;65864;-57
2023/04/06 11:00:48;;;;;;;12.80;10.00;;;;;;;15.07;64.68;99911.68;107751;1266;61693;-57
2023/04/06 11:03:18;;;;;;;17.10;10.90;;;;;;;15.08;64.53;99907.04;104776;1266;64846;-57
2023/04/06 11:05:48;;;;;;;13.30;9.30;;;;;;;15.05;64.50;99911.17;104912;1266;60552;-57
2023/04/06 11:08:29;;;;;;;16.90;11.60;;;;;;;15.00;64.38;99914.12;104259;1266;60350;-58
2023/04/06 11:11:05;;;;;;;16.20;11.50;;;;;;;14.94;64.45;99916.10;107658;1266;66073;-58
2023/04/06 11:13:36;;;;;;;;;;;;;;;14.88;64.73;99915.31;107693;1266;72525;-58
2023/04/06 11:16:05;;;;;;;15.40;12.90;;;;;;;14.85;64.77;99921.48;107673;1266;65920;-57
2023/04/06 11:18:33;;;;;;;17.00;10.60;;;;;;;14.81;65.13;99919.55;107640;1267;57865;-58
2023/04/06 11:21:03;;;;;;;16.90;11.30;;;;;;;14.84;65.32;99920.14;107677;1266;59224;-58
2023/04/06 11:23:31;;;;;;;14.90;10.40;;;;;;;14.92;65.30;99921.92;107245;1266;65301;-58
2023/04/06 11:26:00;;;;;;;15.60;11.70;;;;;;;14.99;65.46;99922.96;103113;1269;63185;-57
2023/04/06 11:28:28;;;;;;;16.50;12.20;;;;;;;15.07;65.36;99923.94;103234;1270;65019;-58
2023/04/06 11:30:56;;;;;;;16.80;12.70;;;;;;;15.07;65.15;99926.69;106117;1266;59468;-58
2023/04/06 11:33:28;;;;;;;17.70;12.60;;;;;;;15.09;65.04;99927.08;103324;1269;59760;-58
2023/04/06 11:35:59;;;;;;;15.20;11.50;;;;;;;15.12;64.77;99927.94;107579;1266;67648;-58
2023/04/06 11:38:28;;;;;;;17.80;12.30;;;;;;;15.11;64.60;99930.20;107639;1267;63263;-57
2023/04/06 11:40:56;;;;;;;17.70;11.70;;;;;;;15.08;64.64;99928.73;107652;1266;63718;-58
2023/04/06 11:43:31;;;;;;;14.50;10.80;;;;;;;15.18;64.10;99930.08;107673;1269;59192;-58
2023/04/06 11:46:01;;;;;;;14.70;11.10;;;;;;;15.27;64.04;99932.51;107699;1266;59427;-57
2023/04/06 11:48:31;;;;;;;18.60;12.40;;;;;;;15.33;64.05;99933.70;107718;1266;64176;-57